Hauptseite
METAR-TAF:

METAR-TAF

Flughäfen :

Flughafen Grenoble Alpes Isère

Grenoble, Frankreich

Breite: 45-22N, Länge: 005-20E, Höhe: 384 m

Beobachtung

Neuester Wetterbericht von vor 29 Minuten, um 13:30 UTC
Wind 6 kt aus Nord/Nordwest
Temperatur 21°C
Luftfeuchtigkeit 40%
Luftdruck 1012 hPa
Sichtweite 10 km oder mehr
keine Wolken unter 1500 m und keine Kumulonimbus oder Gewitterwolken

METAR: LFLS 151330Z AUTO 33006KT CAVOK 21/07 Q1012 NOSIG

Zeit: 15:59 (13:59 UTC)

Prognose

Neuester Wetterbericht von vor 5 Stunden und 59 Minuten, um 08:00 UTC
Gültige Prognose vom 15 um 09 UTC bis 16 um 09 UTC
Wind 3 kt aus unterschiedlichen Richtungen
Sichtweite 10 km oder mehr
keine Wolken unter 1500 m und keine Kumulonimbus oder Gewitterwolken

TAF: LFLS 150800Z 1509/1609 VRB03KT CAVOK

Wetterbeobachtungen und Prognosen von mehr als 4000 Flughäfen (METAR und TAF Bericht).

Die verfügbaren Stationen werden durch gelbe und rote Markierungen auf der Karte dargestellt.

Führen Sie die Maus auf sie, um den Namen der Station zu sehen.

Darauf klicken, um die Beobachtung von Wetterbeobachtungen und Prognosen zu sehen.

Um die Karte zu ändern : klicken Sie auf den grünen Tasten mit einem schwarzen Kreuz Zum Vergrößern, auf den grünen Button mit einem Gedankenstrich zu verkleinern, oder auf die grünen Pfeile für benachbarte Karten.


METAR-TAF: